Time,TemperatureF,DewpointF,PressureIn,WindDirection,WindDirectionDegrees,WindSpeedMPH,WindSpeedGustMPH,Humidity,HourlyPrecipIn,Conditions,Clouds,dailyrainin,SoftwareType,DateUTC
2013-06-09 00:02:00,63.0,49.0,29.94,ENE,59,0.0,2.0,60,0.00,,,0.00,,2013-06-09 05:02:00,
2013-06-09 00:12:00,63.0,49.0,29.94,ENE,59,0.0,2.0,60,0.00,,,0.00,,2013-06-09 05:12:00,
2013-06-09 00:22:00,63.0,49.0,29.94,ENE,63,0.0,1.0,61,0.00,,,0.00,,2013-06-09 05:22:00,
2013-06-09 00:32:00,63.0,50.0,29.95,ENE,74,0.0,1.0,62,0.00,,,0.00,,2013-06-09 05:32:00,
2013-06-09 00:42:00,63.0,50.0,29.95,ENE,74,0.0,1.0,62,0.00,,,0.00,,2013-06-09 05:42:00,
2013-06-09 00:52:00,63.0,51.0,29.95,East,80,0.0,3.0,64,0.00,,,0.00,,2013-06-09 05:52:00,
2013-06-09 01:02:00,63.0,51.0,29.94,ENE,73,0.0,2.0,65,0.00,,,0.00,,2013-06-09 06:02:00,
2013-06-09 01:12:00,63.0,51.0,29.94,ENE,73,0.0,2.0,65,0.00,,,0.00,,2013-06-09 06:12:00,
2013-06-09 01:22:00,63.0,51.0,29.94,East,97,0.0,2.0,66,0.00,,,0.00,,2013-06-09 06:22:00,
2013-06-09 01:32:00,62.0,51.0,29.94,ENE,77,0.0,2.0,67,0.00,,,0.00,,2013-06-09 06:32:00,
2013-06-09 01:42:00,62.0,51.0,29.94,ENE,77,0.0,2.0,67,0.00,,,0.00,,2013-06-09 06:42:00,
2013-06-09 01:52:00,62.0,51.0,29.93,East,97,0.0,1.0,68,0.00,,,0.00,,2013-06-09 06:52:00,
2013-06-09 02:02:00,62.0,52.0,29.93,NNE,24,0.0,2.0,69,0.00,,,0.00,,2013-06-09 07:02:00,
2013-06-09 02:12:00,62.0,52.0,29.93,NNE,24,0.0,2.0,69,0.00,,,0.00,,2013-06-09 07:12:00,
2013-06-09 02:22:00,61.0,52.0,29.92,NNE,30,0.0,1.0,71,0.00,,,0.00,,2013-06-09 07:22:00,
2013-06-09 02:32:00,61.0,52.0,29.91,ENE,65,0.0,1.0,72,0.00,,,0.00,,2013-06-09 07:32:00,
2013-06-09 02:42:00,61.0,52.0,29.91,ENE,65,0.0,1.0,72,0.00,,,0.00,,2013-06-09 07:42:00,
2013-06-09 02:52:00,61.0,52.0,29.91,NNE,30,0.0,1.0,73,0.00,,,0.00,,2013-06-09 07:52:00,
2013-06-09 03:02:00,61.0,53.0,29.91,SE,133,0.0,2.0,74,0.00,,,0.00,,2013-06-09 08:02:00,
2013-06-09 03:12:00,61.0,53.0,29.91,SE,133,0.0,2.0,74,0.00,,,0.00,,2013-06-09 08:12:00,
2013-06-09 03:22:00,60.0,52.0,29.91,East,83,0.0,2.0,75,0.00,,,0.00,,2013-06-09 08:22:00,
2013-06-09 03:32:00,60.0,52.0,29.91,ENE,59,0.0,1.0,76,0.00,,,0.00,,2013-06-09 08:32:00,
2013-06-09 03:42:00,60.0,52.0,29.91,ENE,59,0.0,1.0,76,0.00,,,0.00,,2013-06-09 08:42:00,
2013-06-09 03:53:00,60.0,53.0,29.92,East,96,0.0,1.0,77,0.00,,,0.00,,2013-06-09 08:53:00,
2013-06-09 04:02:00,60.0,53.0,29.92,East,96,0.0,0.0,77,0.00,,,0.00,,2013-06-09 09:02:00,
2013-06-09 04:12:00,60.0,53.0,29.92,East,96,0.0,0.0,77,0.00,,,0.00,,2013-06-09 09:12:00,
2013-06-09 04:22:00,60.0,53.0,29.92,East,96,0.0,0.0,79,0.00,,,0.00,,2013-06-09 09:22:00,
2013-06-09 04:33:00,60.0,54.0,29.93,East,96,0.0,1.0,80,0.00,,,0.00,,2013-06-09 09:33:00,
2013-06-09 04:43:00,60.0,54.0,29.93,East,96,0.0,1.0,80,0.00,,,0.00,,2013-06-09 09:43:00,
2013-06-09 04:52:00,59.0,53.0,29.93,East,96,0.0,0.0,81,0.00,,,0.00,,2013-06-09 09:52:00,
2013-06-09 05:03:00,59.0,54.0,29.93,East,96,0.0,1.0,82,0.00,,,0.00,,2013-06-09 10:03:00,
2013-06-09 05:12:00,59.0,54.0,29.93,East,96,0.0,1.0,82,0.00,,,0.00,,2013-06-09 10:12:00,
2013-06-09 05:23:00,59.0,54.0,29.92,East,96,0.0,0.0,83,0.00,,,0.00,,2013-06-09 10:23:00,
2013-06-09 05:32:00,59.0,54.0,29.92,East,96,0.0,0.0,84,0.00,,,0.00,,2013-06-09 10:32:00,
2013-06-09 05:43:00,59.0,54.0,29.92,East,96,0.0,0.0,84,0.00,,,0.00,,2013-06-09 10:43:00,
2013-06-09 05:52:00,59.0,54.0,29.92,ESE,119,0.0,2.0,84,0.00,,,0.00,,2013-06-09 10:52:00,
2013-06-09 06:02:00,59.0,54.0,29.92,ESE,121,0.0,1.0,85,0.00,,,0.00,,2013-06-09 11:02:00,
2013-06-09 06:12:00,59.0,54.0,29.92,ESE,121,0.0,1.0,85,0.00,,,0.00,,2013-06-09 11:12:00,
2013-06-09 06:22:00,59.0,55.0,29.92,ESE,121,0.0,0.0,86,0.00,,,0.00,,2013-06-09 11:22:00,
2013-06-09 06:32:00,59.0,55.0,29.92,SSE,168,0.0,2.0,86,0.00,,,0.00,,2013-06-09 11:32:00,
2013-06-09 06:42:00,59.0,55.0,29.92,SSE,168,0.0,2.0,86,0.00,,,0.00,,2013-06-09 11:42:00,
2013-06-09 06:52:00,60.0,55.0,29.92,South,191,0.0,2.0,85,0.00,,,0.00,,2013-06-09 11:52:00,
2013-06-09 07:02:00,61.0,56.0,29.91,SE,139,0.0,4.0,85,0.00,,,0.00,,2013-06-09 12:02:00,
2013-06-09 07:12:00,61.0,56.0,29.91,SE,139,0.0,4.0,85,0.00,,,0.00,,2013-06-09 12:12:00,
2013-06-09 07:22:00,63.0,58.0,29.91,South,170,0.0,3.0,83,0.00,,,0.00,,2013-06-09 12:22:00,
2013-06-09 07:32:00,64.0,58.0,29.91,ESE,123,0.0,4.0,81,0.00,,,0.00,,2013-06-09 12:32:00,
2013-06-09 07:42:00,64.0,58.0,29.91,ESE,123,0.0,4.0,81,0.00,,,0.00,,2013-06-09 12:42:00,
2013-06-09 07:52:00,65.0,58.0,29.90,SE,140,0.0,2.0,79,0.00,,,0.00,,2013-06-09 12:52:00,
2013-06-09 08:02:00,66.0,58.0,29.90,East,96,1.0,4.0,76,0.00,,,0.00,,2013-06-09 13:02:00,
2013-06-09 08:12:00,66.0,58.0,29.90,East,96,1.0,4.0,76,0.00,,,0.00,,2013-06-09 13:12:00,
2013-06-09 08:22:00,68.0,59.0,29.90,SSE,148,1.0,6.0,73,0.00,,,0.00,,2013-06-09 13:22:00,
2013-06-09 08:32:00,71.0,59.0,29.90,SSE,167,3.0,8.0,67,0.00,,,0.00,,2013-06-09 13:32:00,
2013-06-09 08:42:00,71.0,59.0,29.90,SSE,167,3.0,8.0,67,0.00,,,0.00,,2013-06-09 13:42:00,
2013-06-09 08:52:00,72.0,59.0,29.90,South,179,3.0,6.0,63,0.00,,,0.00,,2013-06-09 13:52:00,
2013-06-09 09:02:00,73.0,59.0,29.90,South,169,4.0,10.0,61,0.00,,,0.00,,2013-06-09 14:02:00,
2013-06-09 09:12:00,73.0,59.0,29.90,South,169,4.0,10.0,61,0.00,,,0.00,,2013-06-09 14:12:00,
2013-06-09 09:22:00,73.0,59.0,29.90,SSE,159,4.0,10.0,62,0.00,,,0.00,,2013-06-09 14:22:00,
2013-06-09 09:32:00,73.0,59.0,29.89,SSE,158,4.0,10.0,61,0.00,,,0.00,,2013-06-09 14:32:00,
2013-06-09 09:42:00,73.0,59.0,29.89,SSE,158,4.0,10.0,61,0.00,,,0.00,,2013-06-09 14:42:00,
2013-06-09 09:52:00,75.0,60.0,29.89,SSE,159,3.0,8.0,59,0.00,,,0.00,,2013-06-09 14:52:00,
2013-06-09 10:02:00,76.0,59.0,29.88,SE,125,5.0,11.0,56,0.00,,,0.00,,2013-06-09 15:02:00,
2013-06-09 10:12:00,76.0,59.0,29.88,SE,125,5.0,11.0,56,0.00,,,0.00,,2013-06-09 15:12:00,
2013-06-09 10:22:00,77.0,59.0,29.88,SSE,165,5.0,9.0,54,0.00,,,0.00,,2013-06-09 15:22:00,
2013-06-09 10:33:00,77.0,59.0,29.88,South,186,4.0,9.0,53,0.00,,,0.00,,2013-06-09 15:33:00,
2013-06-09 10:43:00,77.0,59.0,29.88,South,186,4.0,9.0,53,0.00,,,0.00,,2013-06-09 15:43:00,
2013-06-09 10:53:00,78.0,59.0,29.87,South,172,4.0,11.0,53,0.00,,,0.00,,2013-06-09 15:53:00,
2013-06-09 11:03:00,79.0,58.0,29.87,SSW,195,5.0,13.0,49,0.00,,,0.00,,2013-06-09 16:03:00,
2013-06-09 11:13:00,79.0,58.0,29.87,SSW,195,5.0,13.0,49,0.00,,,0.00,,2013-06-09 16:13:00,
2013-06-09 11:23:00,79.0,58.0,29.86,SW,223,4.0,13.0,49,0.00,,,0.00,,2013-06-09 16:23:00,
2013-06-09 11:33:00,80.0,59.0,29.86,South,169,4.0,10.0,48,0.00,,,0.00,,2013-06-09 16:33:00,
2013-06-09 11:42:00,80.0,59.0,29.86,South,169,4.0,10.0,48,0.00,,,0.00,,2013-06-09 16:42:00,
2013-06-09 11:53:00,80.0,58.0,29.85,SSW,196,5.0,12.0,47,0.00,,,0.00,,2013-06-09 16:53:00,
2013-06-09 12:02:00,80.0,57.0,29.85,WSW,244,6.0,12.0,46,0.00,,,0.00,,2013-06-09 17:02:00,
2013-06-09 12:12:00,80.0,57.0,29.85,WSW,244,6.0,12.0,46,0.00,,,0.00,,2013-06-09 17:12:00,
2013-06-09 12:22:00,80.0,59.0,29.84,SSE,153,3.0,11.0,48,0.00,,,0.00,,2013-06-09 17:22:00,
2013-06-09 12:32:00,80.0,57.0,29.84,South,178,5.0,9.0,46,0.00,,,0.00,,2013-06-09 17:32:00,
2013-06-09 12:42:00,80.0,57.0,29.84,South,178,5.0,9.0,46,0.00,,,0.00,,2013-06-09 17:42:00,
2013-06-09 12:52:00,80.0,57.0,29.83,South,172,3.0,9.0,46,0.00,,,0.00,,2013-06-09 17:52:00,
2013-06-09 13:02:00,81.0,57.0,29.83,SSE,160,4.0,10.0,44,0.00,,,0.00,,2013-06-09 18:02:00,
2013-06-09 13:12:00,81.0,57.0,29.83,SSE,160,4.0,10.0,44,0.00,,,0.00,,2013-06-09 18:12:00,
2013-06-09 13:22:00,82.0,57.0,29.83,South,191,5.0,12.0,43,0.00,,,0.00,,2013-06-09 18:22:00,
2013-06-09 13:32:00,81.0,54.0,29.82,South,187,6.0,14.0,39,0.00,,,0.00,,2013-06-09 18:32:00,
2013-06-09 13:42:00,81.0,54.0,29.82,South,187,6.0,14.0,39,0.00,,,0.00,,2013-06-09 18:42:00,
2013-06-09 13:52:00,81.0,56.0,29.82,South,190,5.0,14.0,42,0.00,,,0.00,,2013-06-09 18:52:00,
2013-06-09 14:02:00,81.0,56.0,29.81,South,180,4.0,11.0,43,0.00,,,0.00,,2013-06-09 19:02:00,
2013-06-09 14:12:00,81.0,56.0,29.81,South,180,4.0,11.0,43,0.00,,,0.00,,2013-06-09 19:12:00,
2013-06-09 14:22:00,81.0,56.0,29.80,SSE,159,5.0,11.0,42,0.00,,,0.00,,2013-06-09 19:22:00,
2013-06-09 14:32:00,81.0,55.0,29.80,SSE,160,2.0,13.0,41,0.00,,,0.00,,2013-06-09 19:32:00,
2013-06-09 14:42:00,81.0,55.0,29.80,SSE,160,2.0,13.0,41,0.00,,,0.00,,2013-06-09 19:42:00,
2013-06-09 14:52:00,81.0,53.0,29.79,SSE,158,6.0,16.0,38,0.00,,,0.00,,2013-06-09 19:52:00,
2013-06-09 15:02:00,82.0,55.0,29.78,South,175,6.0,14.0,40,0.00,,,0.00,,2013-06-09 20:02:00,
2013-06-09 15:12:00,82.0,55.0,29.78,South,175,6.0,14.0,40,0.00,,,0.00,,2013-06-09 20:12:00,
2013-06-09 15:22:00,83.0,55.0,29.78,SE,146,5.0,12.0,38,0.00,,,0.00,,2013-06-09 20:22:00,
2013-06-09 15:32:00,82.0,55.0,29.78,SSE,165,6.0,16.0,39,0.00,,,0.00,,2013-06-09 20:32:00,
2013-06-09 15:42:00,82.0,55.0,29.78,SSE,165,6.0,16.0,39,0.00,,,0.00,,2013-06-09 20:42:00,
2013-06-09 15:52:00,82.0,55.0,29.77,South,169,5.0,10.0,39,0.00,,,0.00,,2013-06-09 20:52:00,
2013-06-09 16:02:00,81.0,54.0,29.77,SSW,194,7.0,12.0,40,0.00,,,0.00,,2013-06-09 21:02:00,
2013-06-09 16:12:00,81.0,54.0,29.77,SSW,194,7.0,12.0,40,0.00,,,0.00,,2013-06-09 21:12:00,
2013-06-09 16:22:00,81.0,55.0,29.77,SSW,207,5.0,12.0,41,0.00,,,0.00,,2013-06-09 21:22:00,
2013-06-09 16:33:00,81.0,56.0,29.77,South,182,5.0,13.0,42,0.00,,,0.00,,2013-06-09 21:33:00,
2013-06-09 16:53:00,80.0,55.0,29.76,SSW,194,4.0,11.0,43,0.00,,,0.00,,2013-06-09 21:53:00,
2013-06-09 17:02:00,80.0,56.0,29.76,SSW,198,3.0,9.0,44,0.00,,,0.00,,2013-06-09 22:02:00,
2013-06-09 17:13:00,80.0,56.0,29.76,SSW,198,3.0,9.0,44,0.00,,,0.00,,2013-06-09 22:13:00,
2013-06-09 17:23:00,80.0,57.0,29.76,South,190,4.0,10.0,45,0.00,,,0.00,,2013-06-09 22:23:00,
2013-06-09 17:33:00,80.0,56.0,29.76,South,191,3.0,10.0,44,0.00,,,0.00,,2013-06-09 22:33:00,
2013-06-09 17:42:00,80.0,56.0,29.76,South,191,3.0,10.0,44,0.00,,,0.00,,2013-06-09 22:42:00,
2013-06-09 17:52:00,79.0,56.0,29.75,South,173,2.0,8.0,46,0.00,,,0.00,,2013-06-09 22:52:00,
2013-06-09 18:02:00,79.0,56.0,29.75,South,170,2.0,5.0,46,0.00,,,0.00,,2013-06-09 23:02:00,
2013-06-09 18:12:00,79.0,56.0,29.75,South,170,2.0,5.0,46,0.00,,,0.00,,2013-06-09 23:12:00,
2013-06-09 18:22:00,77.0,61.0,29.76,SW,229,4.0,11.0,58,0.00,,,0.00,,2013-06-09 23:22:00,
2013-06-09 18:32:00,70.0,63.0,29.76,NW,321,0.0,8.0,78,0.02,,,0.02,,2013-06-09 23:32:00,
2013-06-09 18:52:00,69.0,64.0,29.76,SSE,168,0.0,1.0,84,0.02,,,0.02,,2013-06-09 23:52:00,
2013-06-09 19:02:00,69.0,64.0,29.77,SSE,161,0.0,2.0,83,0.02,,,0.02,,2013-06-10 00:02:00,
2013-06-09 19:22:00,69.0,63.0,29.76,SSW,197,2.0,9.0,81,0.02,,,0.02,,2013-06-10 00:22:00,
2013-06-09 19:32:00,70.0,64.0,29.77,South,176,1.0,5.0,80,0.00,,,0.02,,2013-06-10 00:32:00,
2013-06-09 19:42:00,70.0,64.0,29.77,South,176,1.0,5.0,80,0.00,,,0.02,,2013-06-10 00:42:00,
2013-06-09 19:52:00,70.0,64.0,29.76,South,181,0.0,4.0,81,0.00,,,0.02,,2013-06-10 00:52:00,
2013-06-09 20:02:00,70.0,64.0,29.75,South,190,0.0,3.0,81,0.00,,,0.02,,2013-06-10 01:02:00,
2013-06-09 20:12:00,70.0,64.0,29.75,South,190,0.0,3.0,81,0.00,,,0.02,,2013-06-10 01:12:00,
2013-06-09 20:22:00,70.0,65.0,29.75,South,169,0.0,3.0,84,0.00,,,0.02,,2013-06-10 01:22:00,
2013-06-09 20:32:00,69.0,64.0,29.75,SSE,163,0.0,3.0,83,0.00,,,0.02,,2013-06-10 01:32:00,
2013-06-09 20:42:00,69.0,64.0,29.75,SSE,163,0.0,3.0,83,0.00,,,0.02,,2013-06-10 01:42:00,
2013-06-09 20:52:00,69.0,64.0,29.76,South,173,0.0,2.0,85,0.00,,,0.02,,2013-06-10 01:52:00,
2013-06-09 21:02:00,68.0,64.0,29.75,SSW,200,0.0,3.0,87,0.01,,,0.03,,2013-06-10 02:02:00,
2013-06-09 21:12:00,68.0,64.0,29.75,SSW,200,0.0,3.0,87,0.01,,,0.03,,2013-06-10 02:12:00,
2013-06-09 21:22:00,68.0,64.0,29.76,South,184,0.0,3.0,87,0.01,,,0.03,,2013-06-10 02:22:00,
2013-06-09 21:32:00,68.0,64.0,29.75,NW,324,0.0,3.0,88,0.02,,,0.04,,2013-06-10 02:32:00,
2013-06-09 21:42:00,68.0,64.0,29.75,NW,324,0.0,3.0,88,0.02,,,0.04,,2013-06-10 02:42:00,
2013-06-09 21:52:00,67.0,63.0,29.76,SW,217,0.0,1.0,88,0.02,,,0.04,,2013-06-10 02:52:00,
2013-06-09 22:02:00,68.0,64.0,29.76,South,180,0.0,1.0,88,0.01,,,0.04,,2013-06-10 03:02:00,
2013-06-09 22:12:00,68.0,64.0,29.76,South,180,0.0,1.0,88,0.01,,,0.04,,2013-06-10 03:12:00,
2013-06-09 22:22:00,67.0,64.0,29.77,ESE,121,0.0,2.0,89,0.01,,,0.04,,2013-06-10 03:22:00,
2013-06-09 22:33:00,67.0,64.0,29.77,SE,128,0.0,1.0,90,0.01,,,0.05,,2013-06-10 03:33:00,
2013-06-09 22:43:00,67.0,64.0,29.77,SE,128,0.0,1.0,90,0.01,,,0.05,,2013-06-10 03:43:00,
2013-06-09 22:53:00,67.0,64.0,29.77,SE,128,0.0,1.0,91,0.01,,,0.05,,2013-06-10 03:53:00,
2013-06-09 23:03:00,66.0,63.0,29.77,South,190,0.0,2.0,91,0.01,,,0.05,,2013-06-10 04:03:00,
2013-06-09 23:12:00,66.0,63.0,29.77,South,190,0.0,2.0,91,0.01,,,0.05,,2013-06-10 04:12:00,
2013-06-09 23:23:00,66.0,64.0,29.76,South,190,0.0,2.0,93,0.01,,,0.05,,2013-06-10 04:23:00,
2013-06-09 23:33:00,66.0,64.0,29.75,South,190,0.0,1.0,93,0.00,,,0.05,,2013-06-10 04:33:00,
2013-06-09 23:42:00,66.0,64.0,29.75,South,190,0.0,1.0,93,0.00,,,0.05,,2013-06-10 04:42:00,
2013-06-09 23:52:00,66.0,64.0,29.75,South,190,0.0,0.0,93,0.00,,,0.05,,2013-06-10 04:52:00,